Time;durP1;ratioP1;P1;durP2;ratioP2;P2;SDS_P1;SDS_P2;PMS_P1;PMS_P2;Temp;Humidity;BMP_temperature;BMP_pressure;BME280_temperature;BME280_humidity;BME280_pressure;Samples;Min_cycle;Max_cycle;Signal;HPM_P1;HPM_P2
2023/03/02 00:00:58;;;;;;;18.58;13.60;;;4.40;99.90;;;;;;4650270;30;20727;-74
2023/03/02 00:03:25;;;;;;;18.38;12.55;;;4.40;99.90;;;;;;4647485;30;20189;-77
2023/03/02 00:05:52;;;;;;;17.05;11.68;;;4.30;99.90;;;;;;4659660;30;20303;-74
2023/03/02 00:08:18;;;;;;;19.48;12.45;;;4.30;99.90;;;;;;4674559;30;20205;-74
2023/03/02 00:10:44;;;;;;;20.10;12.50;;;4.30;99.90;;;;;;4682608;30;20617;-74
2023/03/02 00:13:12;;;;;;;17.83;11.40;;;4.30;99.90;;;;;;4673782;30;20279;-74
2023/03/02 00:15:38;;;;;;;19.33;12.55;;;4.20;99.90;;;;;;4656258;30;20660;-74
2023/03/02 00:18:04;;;;;;;20.70;11.98;;;4.20;99.90;;;;;;4662489;30;20197;-73
2023/03/02 00:20:30;;;;;;;19.15;12.70;;;4.10;99.90;;;;;;4667227;30;20197;-76
2023/03/02 00:22:56;;;;;;;19.45;12.20;;;4.10;99.90;;;;;;4679779;30;20275;-75
2023/03/02 00:25:22;;;;;;;18.88;12.98;;;4.10;99.90;;;;;;4651084;30;20243;-74
2023/03/02 00:27:48;;;;;;;22.80;13.20;;;4.10;99.90;;;;;;4660944;30;20201;-73
2023/03/02 00:30:14;;;;;;;18.23;12.43;;;4.10;99.90;;;;;;4678033;30;20197;-73
2023/03/02 00:32:40;;;;;;;16.30;11.38;;;4.10;99.90;;;;;;4663654;30;20220;-73
2023/03/02 00:35:06;;;;;;;15.10;11.13;;;4.10;99.90;;;;;;4682108;30;20193;-73
2023/03/02 00:37:34;;;;;;;18.15;11.02;;;4.10;99.90;;;;;;4671122;30;20212;-77
2023/03/02 00:40:01;;;;;;;18.40;12.20;;;4.10;99.90;;;;;;4668607;30;20350;-73
2023/03/02 00:42:27;;;;;;;18.27;12.00;;;4.10;99.90;;;;;;4657393;30;20205;-76
2023/03/02 00:44:53;;;;;;;20.23;12.05;;;4.00;99.90;;;;;;4676831;30;20204;-74
2023/03/02 00:47:19;;;;;;;19.00;13.13;;;4.00;99.90;;;;;;4680455;30;20260;-79
2023/03/02 00:49:48;;;;;;;20.98;12.57;;;3.90;99.90;;;;;;4657710;30;20209;-74
2023/03/02 00:52:16;;;;;;;18.30;11.70;;;3.90;99.90;;;;;;4658257;30;20785;-74
2023/03/02 00:54:42;;;;;;;19.60;12.25;;;3.90;99.90;;;;;;4676847;30;20579;-73
2023/03/02 00:57:08;;;;;;;20.27;11.38;;;3.90;99.90;;;;;;4653387;30;20201;-73
2023/03/02 00:59:36;;;;;;;21.17;12.10;;;3.90;99.90;;;;;;4666626;30;20659;-73
2023/03/02 01:02:21;;;;;;;17.27;11.20;;;3.90;99.90;;;;;;4660157;30;20243;-75
2023/03/02 01:04:48;;;;;;;19.05;11.13;;;3.90;99.90;;;;;;4653931;30;20513;-73
2023/03/02 01:07:17;;;;;;;17.10;11.32;;;3.90;99.90;;;;;;4663190;30;20228;-73
2023/03/02 01:09:44;;;;;;;17.00;11.65;;;3.90;99.90;;;;;;4680625;30;20201;-74
2023/03/02 01:12:10;;;;;;;18.13;12.38;;;3.80;99.90;;;;;;4661956;30;20281;-76
2023/03/02 01:14:42;;;;;;;18.98;13.30;;;3.80;99.90;;;;;;4649057;30;20199;-75
2023/03/02 01:17:09;;;;;;;17.73;13.18;;;3.70;99.90;;;;;;4679935;30;20663;-73
2023/03/02 01:19:35;;;;;;;19.58;12.80;;;3.80;99.90;;;;;;4667568;30;20188;-74
2023/03/02 01:22:01;;;;;;;23.50;15.02;;;3.80;99.90;;;;;;4670415;30;20598;-74
2023/03/02 01:24:27;;;;;;;21.27;14.38;;;3.70;99.90;;;;;;4640856;30;20652;-75
2023/03/02 01:26:54;;;;;;;21.98;13.63;;;3.70;99.90;;;;;;4654582;30;20229;-74
2023/03/02 01:29:20;;;;;;;23.52;15.35;;;3.70;99.90;;;;;;4672435;30;20648;-73
2023/03/02 01:31:46;;;;;;;24.55;15.45;;;3.70;99.90;;;;;;4665195;30;20324;-74
2023/03/02 01:34:12;;;;;;;26.35;15.43;;;3.70;99.90;;;;;;4646521;30;20280;-74
2023/03/02 01:36:37;;;;;;;25.58;16.75;;;3.70;99.90;;;;;;4650827;30;20217;-74
2023/03/02 01:39:04;;;;;;;27.98;18.40;;;3.70;99.90;;;;;;4654748;30;20221;-74
2023/03/02 01:41:30;;;;;;;28.55;17.55;;;3.70;99.90;;;;;;4667679;30;20193;-73
2023/03/02 01:43:56;;;;;;;28.85;17.30;;;3.60;99.90;;;;;;4676660;30;20278;-73
2023/03/02 01:46:25;;;;;;;31.75;18.05;;;3.60;99.90;;;;;;4656177;30;20644;-76
2023/03/02 01:48:59;;;;;;;31.92;19.40;;;3.60;99.90;;;;;;4645384;30;20209;-73
2023/03/02 01:51:46;;;;;;;27.92;16.75;;;3.60;99.90;;;;;;4674794;30;20310;-78
2023/03/02 01:54:21;;;;;;;30.25;18.38;;;3.60;99.90;;;;;;4663735;30;20263;-73
2023/03/02 01:56:58;;;;;;;29.17;18.92;;;3.50;99.90;;;;;;4664460;30;20198;-74
2023/03/02 01:59:26;;;;;;;35.42;20.63;;;3.50;99.90;;;;;;4662412;30;20584;-74
2023/03/02 02:01:55;;;;;;;38.58;22.05;;;3.50;99.90;;;;;;4666967;30;20189;-73
2023/03/02 02:04:24;;;;;;;35.28;21.35;;;3.50;99.90;;;;;;4676741;30;20196;-73
2023/03/02 02:06:55;;;;;;;34.78;19.52;;;3.50;99.90;;;;;;4666425;30;21128;-73
2023/03/02 02:09:24;;;;;;;30.50;17.00;;;3.50;99.90;;;;;;4653011;30;20227;-74
2023/03/02 02:11:50;;;;;;;35.53;20.95;;;3.60;99.90;;;;;;4651877;30;20211;-74
2023/03/02 02:14:16;;;;;;;35.00;20.65;;;3.50;99.90;;;;;;4660555;30;20205;-73
2023/03/02 02:16:42;;;;;;;34.45;19.90;;;3.50;99.90;;;;;;4646547;30;20314;-79
2023/03/02 02:19:19;;;;;;;38.55;22.83;;;3.50;99.90;;;;;;4658349;30;20560;-73
2023/03/02 02:21:45;;;;;;;39.17;21.27;;;3.60;99.90;;;;;;4674997;30;20197;-73
2023/03/02 02:24:36;;;;;;;40.15;20.38;;;3.50;99.90;;;;;;4662624;30;20725;-73
2023/03/02 02:27:01;;;;;;;37.38;20.92;;;3.60;99.90;;;;;;4634539;30;20214;-73
2023/03/02 02:29:35;;;;;;;34.17;20.65;;;3.50;99.90;;;;;;4665308;30;20239;-73
2023/03/02 02:32:12;;;;;;;36.60;21.02;;;3.60;99.90;;;;;;4684346;30;20173;-73
2023/03/02 02:34:50;;;;;;;36.22;20.92;;;3.60;99.90;;;;;;4681458;30;20200;-73
2023/03/02 02:37:32;;;;;;;38.90;21.83;;;3.50;99.90;;;;;;4668201;30;20193;-72
2023/03/02 02:40:05;;;;;;;40.63;21.60;;;3.50;99.90;;;;;;4658551;30;20220;-77
2023/03/02 02:42:37;;;;;;;39.78;22.08;;;3.50;99.90;;;;;;4649032;30;20225;-74
2023/03/02 02:45:16;;;;;;;39.17;22.98;;;3.40;99.90;;;;;;4658449;30;20673;-72
2023/03/02 02:47:42;;;;;;;37.78;22.23;;;3.40;99.90;;;;;;4665862;30;20212;-74
2023/03/02 02:50:21;;;;;;;37.67;21.77;;;3.40;99.90;;;;;;4663397;30;20205;-74
2023/03/02 02:52:59;;;;;;;40.65;22.92;;;3.40;99.90;;;;;;4666989;30;20236;-73
2023/03/02 02:55:26;;;;;;;36.95;21.08;;;3.40;99.90;;;;;;4683802;30;20259;-74
2023/03/02 02:57:55;;;;;;;39.17;21.65;;;3.30;99.90;;;;;;4666243;30;20192;-73
2023/03/02 03:00:22;;;;;;;37.13;21.35;;;3.30;99.90;;;;;;4664863;30;20196;-73
2023/03/02 03:03:02;;;;;;;53.20;27.70;;;3.40;99.90;;;;;;4674115;30;20628;-73
2023/03/02 03:05:28;;;;;;;61.03;29.27;;;3.30;99.90;;;;;;4665561;30;20201;-74
2023/03/02 03:08:09;;;;;;;58.70;28.33;;;3.30;99.90;;;;;;4667148;30;20618;-74
2023/03/02 03:10:40;;;;;;;65.35;30.77;;;3.30;99.90;;;;;;4652768;30;20243;-74
2023/03/02 03:13:11;;;;;;;65.03;29.35;;;3.30;99.90;;;;;;4641180;30;20201;-74
2023/03/02 03:15:37;;;;;;;61.15;30.08;;;3.20;99.90;;;;;;4652075;30;20205;-73
2023/03/02 03:18:03;;;;;;;65.38;30.70;;;3.30;99.90;;;;;;4653442;30;20218;-73
2023/03/02 03:20:29;;;;;;;63.47;30.52;;;3.30;99.90;;;;;;4661331;30;20637;-73
2023/03/02 03:22:58;;;;;;;64.45;30.88;;;3.30;99.90;;;;;;4650307;30;20208;-73
2023/03/02 03:25:25;;;;;;;60.92;30.33;;;3.30;99.90;;;;;;4668016;30;20287;-73
2023/03/02 03:27:51;;;;;;;58.97;29.45;;;3.30;99.90;;;;;;4664880;30;20289;-73
2023/03/02 03:30:18;;;;;;;62.35;28.70;;;3.30;99.90;;;;;;4650334;30;20193;-76
2023/03/02 03:32:45;;;;;;;58.28;29.40;;;3.30;99.90;;;;;;4642582;30;20282;-74
2023/03/02 03:35:12;;;;;;;66.38;33.38;;;3.20;99.90;;;;;;4645945;30;20208;-73
2023/03/02 03:37:40;;;;;;;69.47;33.35;;;3.30;99.90;;;;;;4650362;30;20190;-73
2023/03/02 03:40:09;;;;;;;62.17;31.35;;;3.30;99.90;;;;;;4666229;30;20217;-74
2023/03/02 03:42:37;;;;;;;56.78;27.85;;;3.30;99.90;;;;;;4643569;30;20612;-73
2023/03/02 03:45:04;;;;;;;56.25;28.42;;;3.30;99.90;;;;;;4645385;30;20202;-73
2023/03/02 03:47:32;;;;;;;60.40;28.98;;;3.30;99.90;;;;;;4649110;30;20304;-73
2023/03/02 03:49:59;;;;;;;59.28;30.85;;;3.30;99.90;;;;;;4650692;30;20236;-73
2023/03/02 03:52:31;;;;;;;60.60;31.50;;;3.20;99.90;;;;;;4647101;30;20655;-74
2023/03/02 03:55:07;;;;;;;66.40;32.58;;;3.20;99.90;;;;;;4648166;30;20259;-76
2023/03/02 03:57:33;;;;;;;56.83;29.77;;;3.20;99.90;;;;;;4635245;30;20201;-74
2023/03/02 04:00:00;;;;;;;54.05;29.58;;;3.20;99.90;;;;;;4641221;30;20196;-72
2023/03/02 04:02:25;;;;;;;55.15;30.02;;;3.20;99.90;;;;;;4654397;30;20648;-73
2023/03/02 04:04:51;;;;;;;53.75;29.50;;;3.30;99.90;;;;;;4669248;30;20204;-73
2023/03/02 04:07:18;;;;;;;57.15;29.00;;;3.30;99.90;;;;;;4652396;30;20221;-77
2023/03/02 04:09:45;;;;;;;54.92;29.17;;;3.20;99.90;;;;;;4649735;30;20284;-73
2023/03/02 04:12:12;;;;;;;55.83;28.23;;;3.20;99.90;;;;;;4634932;30;20288;-74
2023/03/02 04:14:42;;;;;;;53.53;27.23;;;3.20;99.90;;;;;;4664937;30;20643;-73
2023/03/02 04:17:08;;;;;;;61.47;30.70;;;3.20;99.90;;;;;;4666769;30;20204;-74
2023/03/02 04:19:39;;;;;;;65.30;30.92;;;3.20;99.90;;;;;;4648964;30;20217;-73
2023/03/02 04:22:05;;;;;;;59.47;29.05;;;3.20;99.90;;;;;;4634709;30;20198;-74
2023/03/02 04:24:33;;;;;;;62.63;30.25;;;3.10;99.90;;;;;;4642115;30;20205;-75
2023/03/02 04:27:01;;;;;;;65.47;29.38;;;3.10;99.90;;;;;;4648316;30;20320;-73
2023/03/02 04:29:28;;;;;;;64.00;31.27;;;3.20;99.90;;;;;;4648777;30;20652;-73
2023/03/02 04:31:54;;;;;;;65.63;30.55;;;3.10;99.90;;;;;;4649437;30;20253;-73
2023/03/02 04:34:24;;;;;;;81.68;30.25;;;3.10;99.90;;;;;;4652680;30;20200;-74
2023/03/02 04:36:50;;;;;;;73.45;31.70;;;3.10;99.90;;;;;;4649663;30;20198;-73
2023/03/02 04:39:17;;;;;;;83.80;31.40;;;3.10;99.90;;;;;;4677301;30;20204;-74
2023/03/02 04:41:47;;;;;;;77.88;30.65;;;3.10;99.90;;;;;;4667192;30;20188;-73
2023/03/02 04:44:13;;;;;;;81.38;31.85;;;3.00;99.90;;;;;;4668089;30;20211;-77
2023/03/02 04:46:40;;;;;;;80.57;31.70;;;3.00;99.90;;;;;;4654999;30;20221;-73
2023/03/02 04:49:06;;;;;;;88.72;33.33;;;3.00;99.90;;;;;;4653788;30;20209;-74
2023/03/02 04:51:37;;;;;;;81.70;31.58;;;2.90;99.90;;;;;;4670248;30;20255;-75
2023/03/02 04:54:16;;;;;;;80.15;31.90;;;2.90;99.90;;;;;;4680999;30;20242;-75
2023/03/02 04:56:42;;;;;;;80.13;31.08;;;2.90;99.90;;;;;;4662900;30;20234;-75
2023/03/02 04:59:07;;;;;;;116.50;29.10;;;2.90;99.90;;;;;;4674761;30;20197;-75
2023/03/02 05:01:33;;;;;;;73.70;28.33;;;2.90;99.90;;;;;;4674465;30;20186;-74
2023/03/02 05:03:59;;;;;;;78.15;29.65;;;2.80;99.90;;;;;;4656613;30;20247;-74
2023/03/02 05:06:25;;;;;;;76.35;30.02;;;2.90;99.90;;;;;;4681607;30;20225;-74
2023/03/02 05:08:52;;;;;;;71.05;27.23;;;2.80;99.90;;;;;;4655441;30;20606;-74
2023/03/02 05:11:28;;;;;;;74.20;26.77;;;2.80;99.90;;;;;;4665843;30;20231;-74
2023/03/02 05:13:58;;;;;;;63.00;25.27;;;2.80;99.90;;;;;;4660895;30;20205;-73
2023/03/02 05:16:25;;;;;;;78.40;27.58;;;2.80;99.90;;;;;;4661816;30;20227;-74
2023/03/02 05:18:51;;;;;;;73.75;26.65;;;2.80;99.90;;;;;;4642639;30;20294;-76
2023/03/02 05:21:17;;;;;;;67.00;24.85;;;2.70;99.90;;;;;;4659539;30;20292;-73
2023/03/02 05:23:43;;;;;;;75.90;27.40;;;2.70;99.90;;;;;;4667851;30;20196;-74
2023/03/02 05:26:09;;;;;;;74.32;26.95;;;2.70;99.90;;;;;;4662226;30;20242;-74
2023/03/02 05:28:35;;;;;;;71.38;26.98;;;2.70;99.90;;;;;;4659685;30;20204;-73
2023/03/02 05:31:01;;;;;;;80.18;27.00;;;2.70;99.90;;;;;;4654321;30;20679;-74
2023/03/02 05:33:27;;;;;;;63.80;26.10;;;2.70;99.90;;;;;;4651609;30;20197;-78
2023/03/02 05:35:53;;;;;;;82.03;27.30;;;2.70;99.90;;;;;;4645890;30;20676;-74
2023/03/02 05:38:19;;;;;;;86.63;29.00;;;2.60;99.90;;;;;;4666029;30;20251;-74
2023/03/02 05:40:44;;;;;;;80.85;31.25;;;2.70;99.90;;;;;;4682240;30;20264;-77
2023/03/02 05:43:15;;;;;;;80.00;27.65;;;2.70;99.90;;;;;;4660250;30;20208;-73
2023/03/02 05:45:41;;;;;;;148.00;25.65;;;2.60;99.90;;;;;;4660692;30;20221;-75
2023/03/02 05:48:07;;;;;;;94.00;29.52;;;2.70;99.90;;;;;;4668988;30;20559;-73
2023/03/02 05:50:33;;;;;;;83.90;27.33;;;2.70;99.90;;;;;;4667984;30;20194;-73
2023/03/02 05:53:01;;;;;;;66.78;26.17;;;2.70;99.90;;;;;;4664850;30;20257;-75
2023/03/02 05:55:27;;;;;;;61.70;26.52;;;2.60;99.90;;;;;;4639219;30;20202;-75
2023/03/02 05:57:53;;;;;;;66.82;26.08;;;2.60;99.90;;;;;;4661122;30;20229;-75
2023/03/02 06:00:19;;;;;;;65.05;26.50;;;2.60;99.90;;;;;;4641809;30;20257;-75
2023/03/02 06:02:45;;;;;;;66.10;23.05;;;2.60;99.90;;;;;;4660363;30;20277;-74
2023/03/02 06:05:14;;;;;;;150.50;24.00;;;2.60;99.90;;;;;;4668192;30;20652;-74
2023/03/02 06:07:40;;;;;;;80.65;26.60;;;2.60;99.90;;;;;;4666071;30;20311;-73
2023/03/02 06:10:07;;;;;;;57.83;26.67;;;2.50;99.90;;;;;;4668424;30;20232;-73
2023/03/02 06:12:33;;;;;;;107.38;27.42;;;2.50;99.90;;;;;;4657307;30;20197;-73
2023/03/02 06:14:59;;;;;;;85.65;27.85;;;2.60;99.90;;;;;;4661318;30;20210;-74
2023/03/02 06:17:25;;;;;;;84.00;26.83;;;2.60;99.90;;;;;;4645281;30;20340;-75
2023/03/02 06:19:51;;;;;;;61.97;25.95;;;2.60;99.90;;;;;;4657625;30;20185;-75
2023/03/02 06:22:17;;;;;;;58.22;26.75;;;2.60;99.90;;;;;;4654467;30;20541;-80
2023/03/02 06:24:43;;;;;;;62.25;29.27;;;2.60;99.90;;;;;;4662623;30;20193;-79
2023/03/02 06:27:09;;;;;;;68.93;32.13;;;2.60;99.90;;;;;;4661757;30;20237;-74
2023/03/02 06:29:34;;;;;;;77.28;29.38;;;2.70;99.90;;;;;;4672635;30;20576;-74
2023/03/02 06:32:00;;;;;;;67.35;30.92;;;2.70;99.90;;;;;;4659292;30;20193;-76
2023/03/02 06:34:28;;;;;;;63.03;31.17;;;2.70;99.90;;;;;;4659430;30;20201;-74
2023/03/02 06:36:54;;;;;;;89.68;28.80;;;2.70;99.90;;;;;;4653953;30;20205;-74
2023/03/02 06:39:20;;;;;;;92.35;29.77;;;2.70;99.90;;;;;;4642830;30;20263;-79
2023/03/02 06:41:47;;;;;;;64.43;29.48;;;2.60;99.90;;;;;;4657047;30;20245;-75
2023/03/02 06:44:14;;;;;;;65.05;30.80;;;2.60;99.90;;;;;;4638099;30;20304;-75
2023/03/02 06:46:43;;;;;;;69.90;29.17;;;2.60;99.90;;;;;;4639258;30;20291;-77
2023/03/02 06:49:10;;;;;;;74.90;29.58;;;2.60;99.90;;;;;;4673365;30;20205;-74
2023/03/02 06:51:37;;;;;;;79.82;28.75;;;2.60;99.90;;;;;;4668378;30;20244;-73
2023/03/02 06:54:06;;;;;;;77.72;27.92;;;2.60;99.90;;;;;;4670423;30;20682;-74
2023/03/02 06:56:32;;;;;;;81.60;28.25;;;2.60;99.90;;;;;;4657382;30;20240;-75
2023/03/02 06:58:58;;;;;;;67.60;28.25;;;2.60;99.90;;;;;;4665203;30;20567;-75
2023/03/02 07:01:24;;;;;;;75.95;27.63;;;2.50;99.90;;;;;;4648526;30;20209;-73
2023/03/02 07:03:50;;;;;;;53.13;23.25;;;2.50;99.90;;;;;;4636155;30;20202;-79
2023/03/02 07:06:16;;;;;;;48.15;24.85;;;2.50;99.90;;;;;;4645721;30;20221;-74
2023/03/02 07:08:41;;;;;;;54.70;26.02;;;2.50;99.90;;;;;;4663604;30;20264;-74
2023/03/02 07:11:09;;;;;;;52.53;22.52;;;2.50;99.90;;;;;;4648968;30;20209;-75
2023/03/02 07:13:39;;;;;;;46.78;24.48;;;2.50;99.90;;;;;;4655459;30;20247;-75
2023/03/02 07:16:12;;;;;;;70.70;26.13;;;2.50;99.90;;;;;;4671118;30;20208;-74
2023/03/02 07:18:38;;;;;;;65.57;26.08;;;2.50;99.90;;;;;;4657762;30;20221;-75
2023/03/02 07:21:05;;;;;;;58.95;26.70;;;2.50;99.90;;;;;;4666342;30;20213;-73
2023/03/02 07:23:31;;;;;;;74.78;25.45;;;2.50;99.90;;;;;;4645565;30;20675;-74
2023/03/02 07:25:57;;;;;;;81.32;24.85;;;2.50;99.90;;;;;;4653836;30;20221;-75
2023/03/02 07:28:24;;;;;;;77.70;25.95;;;2.50;99.90;;;;;;4648051;30;20220;-74
2023/03/02 07:30:52;;;;;;;71.30;27.15;;;2.50;99.90;;;;;;4665912;30;20252;-74
2023/03/02 07:33:18;;;;;;;68.35;27.60;;;2.50;99.90;;;;;;4660731;30;20194;-74
2023/03/02 07:35:44;;;;;;;67.90;28.23;;;2.50;99.90;;;;;;4656443;30;20214;-73
2023/03/02 07:38:09;;;;;;;55.60;27.55;;;2.50;99.90;;;;;;4660860;30;20197;-73
2023/03/02 07:40:40;;;;;;;61.58;27.10;;;2.50;99.90;;;;;;4635696;30;20208;-75
2023/03/02 07:43:06;;;;;;;83.78;27.58;;;2.60;99.90;;;;;;4657449;30;20231;-74
2023/03/02 07:45:31;;;;;;;90.75;24.83;;;2.50;99.90;;;;;;4644256;30;20205;-76
2023/03/02 07:47:57;;;;;;;55.63;25.90;;;2.50;99.90;;;;;;4636266;30;20213;-76
2023/03/02 07:50:23;;;;;;;62.63;28.48;;;2.50;99.90;;;;;;4634847;30;20287;-75
2023/03/02 07:52:49;;;;;;;72.82;27.27;;;2.50;99.90;;;;;;4638084;30;20305;-73
2023/03/02 07:55:14;;;;;;;68.43;28.98;;;2.50;99.90;;;;;;4648654;30;20241;-73
2023/03/02 07:57:40;;;;;;;61.67;25.77;;;2.50;99.90;;;;;;4660815;30;20202;-73
2023/03/02 08:00:07;;;;;;;60.75;25.75;;;2.50;99.90;;;;;;4651827;30;20671;-77
2023/03/02 08:02:39;;;;;;;58.45;25.08;;;2.50;99.90;;;;;;4645494;30;20206;-73
2023/03/02 08:05:05;;;;;;;56.50;27.88;;;2.50;99.90;;;;;;4654542;30;20225;-74
2023/03/02 08:07:31;;;;;;;60.35;28.67;;;2.50;99.90;;;;;;4647469;30;20213;-76
2023/03/02 08:09:57;;;;;;;62.80;26.17;;;2.50;99.90;;;;;;4652382;30;20784;-73
2023/03/02 08:12:23;;;;;;;66.25;29.15;;;2.50;99.90;;;;;;4662336;30;20667;-75
2023/03/02 08:14:48;;;;;;;60.67;26.17;;;2.50;99.90;;;;;;4657724;30;20226;-74
2023/03/02 08:17:14;;;;;;;68.85;28.48;;;2.60;99.90;;;;;;4662070;30;20212;-73
2023/03/02 08:19:40;;;;;;;77.65;28.30;;;2.60;99.90;;;;;;4631227;30;20208;-75
2023/03/02 08:22:06;;;;;;;61.05;26.52;;;2.60;99.90;;;;;;4648973;30;20571;-78
2023/03/02 08:24:31;;;;;;;76.88;26.65;;;2.60;99.90;;;;;;4645487;30;20293;-74
2023/03/02 08:27:02;;;;;;;102.05;28.08;;;2.60;99.90;;;;;;4645734;30;20233;-73
2023/03/02 08:29:28;;;;;;;59.78;27.55;;;2.60;99.90;;;;;;4661043;30;20201;-74
2023/03/02 08:31:54;;;;;;;49.85;24.02;;;2.60;99.90;;;;;;4665499;30;20240;-75
2023/03/02 08:34:20;;;;;;;53.13;22.67;;;2.50;99.90;;;;;;4650021;30;20202;-72
2023/03/02 08:36:45;;;;;;;55.20;23.15;;;2.50;99.90;;;;;;4646743;30;20715;-74
2023/03/02 08:39:12;;;;;;;55.20;26.45;;;2.50;99.90;;;;;;4659884;30;20246;-78
2023/03/02 08:41:38;;;;;;;57.28;23.75;;;2.50;99.90;;;;;;4666176;30;20221;-74
2023/03/02 08:44:04;;;;;;;58.03;25.63;;;2.60;99.90;;;;;;4663468;30;20666;-74
2023/03/02 08:46:30;;;;;;;62.08;25.02;;;2.60;99.90;;;;;;4656659;30;20237;-74
2023/03/02 08:48:56;;;;;;;54.85;22.63;;;2.60;99.90;;;;;;4648045;30;20364;-74
2023/03/02 08:51:24;;;;;;;53.38;23.25;;;2.60;99.90;;;;;;4664401;30;20315;-73
2023/03/02 08:53:54;;;;;;;49.13;22.23;;;2.60;99.90;;;;;;4655449;30;20194;-79
2023/03/02 08:56:34;;;;;;;48.65;22.55;;;2.60;99.90;;;;;;4664398;30;20217;-74
2023/03/02 08:59:04;;;;;;;47.88;22.02;;;2.70;99.90;;;;;;4652364;30;20204;-72
2023/03/02 09:01:32;;;;;;;54.35;23.52;;;2.70;99.90;;;;;;4665339;30;20193;-73
2023/03/02 09:03:59;;;;;;;53.33;22.92;;;2.70;99.90;;;;;;4654962;30;20288;-73
2023/03/02 09:06:26;;;;;;;47.10;21.80;;;2.70;99.90;;;;;;4674508;30;20225;-73
2023/03/02 09:08:52;;;;;;;55.90;21.80;;;2.80;99.90;;;;;;4646767;30;20260;-74
2023/03/02 09:11:18;;;;;;;51.20;23.10;;;2.80;99.90;;;;;;4647510;30;20225;-75
2023/03/02 09:13:44;;;;;;;49.08;21.85;;;2.80;99.90;;;;;;4667778;30;20698;-73
2023/03/02 09:16:10;;;;;;;49.53;21.77;;;2.80;99.90;;;;;;4652016;30;20223;-73
2023/03/02 09:18:37;;;;;;;51.97;22.38;;;2.90;99.90;;;;;;4679387;30;20335;-74
2023/03/02 09:21:03;;;;;;;47.38;21.55;;;2.90;99.90;;;;;;4675683;30;20197;-74
2023/03/02 09:23:30;;;;;;;47.55;20.88;;;2.90;99.90;;;;;;4673029;30;20674;-74
2023/03/02 09:25:56;;;;;;;45.83;22.05;;;2.90;99.90;;;;;;4660809;30;20226;-74
2023/03/02 09:28:22;;;;;;;50.42;22.00;;;2.90;99.90;;;;;;4665251;30;20565;-74
2023/03/02 09:30:50;;;;;;;48.97;21.80;;;2.90;99.90;;;;;;4674299;30;20224;-74
2023/03/02 09:33:16;;;;;;;47.42;21.13;;;3.00;99.90;;;;;;4672229;30;20223;-73
2023/03/02 09:35:42;;;;;;;51.60;22.23;;;3.00;99.90;;;;;;4670164;30;20639;-73
2023/03/02 09:38:11;;;;;;;53.60;21.85;;;3.00;99.90;;;;;;4667135;30;20216;-73
2023/03/02 09:40:43;;;;;;;50.58;21.35;;;3.00;99.90;;;;;;4672607;30;20203;-76
2023/03/02 09:44:00;;;;;;;48.72;22.10;;;3.00;99.90;;;;;;4637525;30;20277;-74
2023/03/02 09:46:47;;;;;;;53.50;21.65;;;3.00;99.90;;;;;;4630211;30;22005;-74
2023/03/02 09:49:50;;;;;;;51.97;21.65;;;3.10;99.90;;;;;;4656811;30;20216;-74
2023/03/02 09:52:34;;;;;;;53.42;22.42;;;3.10;99.90;;;;;;4650165;30;20240;-74
2023/03/02 09:55:15;;;;;;;54.15;23.35;;;3.10;99.90;;;;;;4663294;30;20186;-74
2023/03/02 09:57:42;;;;;;;47.13;20.55;;;3.10;99.90;;;;;;4652272;30;20287;-73
2023/03/02 10:00:15;;;;;;;51.00;21.40;;;3.20;99.90;;;;;;4667542;30;20194;-73
2023/03/02 10:03:01;;;;;;;51.97;22.02;;;3.30;99.90;;;;;;4646793;30;21068;-75
2023/03/02 10:05:54;;;;;;;46.33;21.40;;;3.30;99.90;;;;;;4665771;30;20197;-74
2023/03/02 10:08:25;;;;;;;50.53;21.55;;;3.30;99.90;;;;;;4650403;30;20353;-74
2023/03/02 10:10:57;;;;;;;45.25;20.35;;;3.50;99.90;;;;;;4667762;30;20213;-73
2023/03/02 10:13:48;;;;;;;48.03;22.45;;;3.50;99.90;;;;;;4672172;30;20221;-74
2023/03/02 10:16:44;;;;;;;43.67;20.33;;;3.60;99.90;;;;;;4675643;30;20209;-74
2023/03/02 10:19:26;;;;;;;42.42;19.92;;;3.70;99.90;;;;;;4678861;30;20220;-74
2023/03/02 10:22:11;;;;;;;40.00;19.70;;;3.70;99.90;;;;;;4684751;30;20236;-73
2023/03/02 10:24:43;;;;;;;37.00;18.60;;;3.70;99.90;;;;;;4675313;30;20248;-72
2023/03/02 10:27:21;;;;;;;38.80;18.83;;;3.80;99.90;;;;;;4667033;30;20263;-73
2023/03/02 10:30:24;;;;;;;36.63;17.88;;;3.90;99.90;;;;;;4651584;30;20204;-74
2023/03/02 10:32:51;;;;;;;38.00;18.23;;;4.00;99.90;;;;;;4665129;30;20212;-74
2023/03/02 10:35:20;;;;;;;33.70;17.33;;;4.30;99.90;;;;;;4671159;30;20202;-74
2023/03/02 10:37:46;;;;;;;33.67;15.93;;;4.70;99.90;;;;;;4664764;30;20207;-73
2023/03/02 10:40:37;;;;;;;30.35;17.08;;;5.00;99.90;;;;;;4663859;30;20316;-74
2023/03/02 10:43:05;;;;;;;30.58;16.92;;;5.40;99.90;;;;;;4665215;30;20192;-74
2023/03/02 10:45:31;;;;;;;31.08;16.20;;;5.80;99.90;;;;;;4669222;30;20189;-74
2023/03/02 10:48:01;;;;;;;29.52;15.88;;;6.10;99.90;;;;;;4662085;30;20210;-73
2023/03/02 10:50:29;;;;;;;30.70;15.38;;;6.50;99.90;;;;;;4661624;30;20201;-73
2023/03/02 10:52:55;;;;;;;30.25;15.50;;;6.80;99.90;;;;;;4638693;30;20290;-74
2023/03/02 10:55:21;;;;;;;28.80;16.20;;;7.10;99.90;;;;;;4683766;30;20193;-73
2023/03/02 10:58:06;;;;;;;32.88;16.10;;;7.10;99.90;;;;;;4678478;30;20292;-75
2023/03/02 11:00:33;;;;;;;29.35;16.25;;;7.10;99.90;;;;;;4664355;30;20276;-73
2023/03/02 11:03:02;;;;;;;27.55;15.65;;;7.00;99.90;;;;;;4663778;30;20204;-74
2023/03/02 11:05:28;;;;;;;29.52;16.65;;;7.10;99.90;;;;;;4682552;30;20523;-74
2023/03/02 11:07:55;;;;;;;29.17;15.32;;;7.20;99.90;;;;;;4670547;30;20315;-73
2023/03/02 11:10:30;;;;;;;26.95;15.48;;;7.20;99.90;;;;;;4664750;30;20198;-73
2023/03/02 11:12:58;;;;;;;25.67;14.85;;;7.20;99.90;;;;;;4663829;30;20693;-77
2023/03/02 11:15:31;;;;;;;34.13;13.75;;;7.10;99.90;;;;;;4674245;30;20272;-74
2023/03/02 11:18:27;;;;;;;24.58;14.15;;;6.90;99.90;;;;;;4675165;30;20204;-73
2023/03/02 11:21:08;;;;;;;26.40;14.52;;;7.00;99.90;;;;;;4683527;30;20179;-73
2023/03/02 11:23:41;;;;;;;23.20;13.57;;;7.00;99.90;;;;;;4675391;30;20737;-75
2023/03/02 11:26:19;;;;;;;24.13;14.30;;;7.20;99.90;;;;;;4661799;30;20580;-72
2023/03/02 11:29:00;;;;;;;21.52;13.38;;;7.40;99.90;;;;;;4664639;30;20604;-74
2023/03/02 11:31:40;;;;;;;22.00;13.98;;;7.60;99.90;;;;;;4658936;30;20193;-74
2023/03/02 11:34:31;;;;;;;21.08;13.65;;;7.90;99.90;;;;;;4657627;30;20249;-73
2023/03/02 11:36:59;;;;;;;22.50;14.20;;;8.20;99.90;;;;;;4648995;30;20204;-78
2023/03/02 11:39:46;;;;;;;20.50;12.88;;;8.50;99.90;;;;;;4674872;30;20192;-73
2023/03/02 11:42:37;;;;;;;20.48;13.05;;;9.00;99.90;;;;;;4649319;30;20229;-74
2023/03/02 11:45:20;;;;;;;21.95;13.25;;;9.20;99.90;;;;;;4645991;30;20286;-73
2023/03/02 11:48:00;;;;;;;20.45;12.40;;;9.30;99.90;;;;;;4672386;30;20249;-74
2023/03/02 11:50:26;;;;;;;25.20;13.75;;;9.30;99.90;;;;;;4666046;30;20193;-78
2023/03/02 11:52:59;;;;;;;25.92;15.05;;;9.40;99.90;;;;;;4660635;30;20256;-74
2023/03/02 11:55:28;;;;;;;24.48;14.93;;;9.60;99.90;;;;;;4633832;30;20214;-73
2023/03/02 11:57:58;;;;;;;23.35;14.75;;;9.70;99.90;;;;;;4658755;30;20192;-74
2023/03/02 12:00:35;;;;;;;21.52;13.40;;;9.70;99.90;;;;;;4649426;30;20198;-77
2023/03/02 12:03:15;;;;;;;22.33;13.98;;;9.60;99.90;;;;;;4656146;30;20193;-73
2023/03/02 12:05:46;;;;;;;21.98;14.23;;;9.50;99.90;;;;;;4648820;30;20178;-75
2023/03/02 12:08:17;;;;;;;21.63;13.68;;;9.30;99.90;;;;;;4655043;30;20701;-73
2023/03/02 12:10:59;;;;;;;22.15;13.40;;;9.20;99.90;;;;;;4664759;30;20196;-73
2023/03/02 12:13:31;;;;;;;20.38;12.77;;;9.10;99.90;;;;;;4670579;30;20200;-74
2023/03/02 12:15:58;;;;;;;19.90;12.48;;;8.90;99.90;;;;;;4659844;30;20224;-73
2023/03/02 12:18:23;;;;;;;22.52;14.05;;;8.90;99.90;;;;;;4649475;30;20279;-76
2023/03/02 12:20:58;;;;;;;20.45;12.98;;;8.80;99.90;;;;;;4664204;30;20260;-73
2023/03/02 12:23:24;;;;;;;18.75;12.30;;;8.90;99.90;;;;;;4661723;30;20643;-74
2023/03/02 12:26:06;;;;;;;23.02;12.75;;;9.00;99.90;;;;;;4663353;30;20231;-77
2023/03/02 12:28:37;;;;;;;22.10;12.88;;;9.20;99.90;;;;;;4670173;30;20189;-74
2023/03/02 12:31:11;;;;;;;21.08;12.85;;;9.20;99.90;;;;;;4682572;30;20612;-73
2023/03/02 12:33:44;;;;;;;22.60;13.88;;;9.30;99.90;;;;;;4676557;30;20197;-73
2023/03/02 12:36:17;;;;;;;23.38;14.88;;;9.30;99.90;;;;;;4664152;30;20201;-74
2023/03/02 12:38:55;;;;;;;22.27;14.15;;;9.30;99.90;;;;;;4666780;30;20194;-74
2023/03/02 12:41:46;;;;;;;22.35;14.32;;;9.20;99.90;;;;;;4665443;30;20185;-72
2023/03/02 12:44:42;;;;;;;29.27;14.93;;;9.10;99.90;;;;;;4665955;30;20200;-74
2023/03/02 12:47:25;;;;;;;24.63;15.07;;;9.00;99.90;;;;;;4649043;30;20222;-74
2023/03/02 12:50:03;;;;;;;24.85;15.23;;;9.10;99.90;;;;;;4668178;30;20205;-73